sensor_id;sensor_type;location;lat;lon;timestamp;temperature;humidity
25933;DHT22;13731;51.166;4.474;2022-09-09T00:01:30;13.90;99.90
25933;DHT22;13731;51.166;4.474;2022-09-09T00:07:03;13.90;99.90
25933;DHT22;13731;51.166;4.474;2022-09-09T00:12:48;13.90;99.90
25933;DHT22;13731;51.166;4.474;2022-09-09T00:15:20;13.80;99.90
25933;DHT22;13731;51.166;4.474;2022-09-09T00:18:11;13.80;99.90
25933;DHT22;13731;51.166;4.474;2022-09-09T00:20:49;13.80;99.90
25933;DHT22;13731;51.166;4.474;2022-09-09T00:23:27;13.80;99.90
25933;DHT22;13731;51.166;4.474;2022-09-09T00:31:28;13.70;99.90
25933;DHT22;13731;51.166;4.474;2022-09-09T00:33:55;13.80;99.90
25933;DHT22;13731;51.166;4.474;2022-09-09T00:36:26;13.80;99.90
25933;DHT22;13731;51.166;4.474;2022-09-09T00:38:59;13.80;99.90
25933;DHT22;13731;51.166;4.474;2022-09-09T00:44:37;13.80;99.90
25933;DHT22;13731;51.166;4.474;2022-09-09T00:50:09;13.80;99.90
25933;DHT22;13731;51.166;4.474;2022-09-09T00:55:48;13.80;99.90
25933;DHT22;13731;51.166;4.474;2022-09-09T00:58:15;13.70;99.90
25933;DHT22;13731;51.166;4.474;2022-09-09T01:00:45;13.80;99.90
25933;DHT22;13731;51.166;4.474;2022-09-09T01:06:36;13.80;99.90
25933;DHT22;13731;51.166;4.474;2022-09-09T01:09:21;13.80;99.90
25933;DHT22;13731;51.166;4.474;2022-09-09T01:12:15;13.70;99.90
25933;DHT22;13731;51.166;4.474;2022-09-09T01:14:51;13.70;99.90
25933;DHT22;13731;51.166;4.474;2022-09-09T01:18:10;13.70;99.90
25933;DHT22;13731;51.166;4.474;2022-09-09T01:20:13;13.70;99.90
25933;DHT22;13731;51.166;4.474;2022-09-09T01:28:28;13.80;99.90
25933;DHT22;13731;51.166;4.474;2022-09-09T01:31:05;13.80;99.90
25933;DHT22;13731;51.166;4.474;2022-09-09T01:33:38;13.80;99.90
25933;DHT22;13731;51.166;4.474;2022-09-09T01:36:28;13.80;99.90
25933;DHT22;13731;51.166;4.474;2022-09-09T01:38:55;13.70;99.90
25933;DHT22;13731;51.166;4.474;2022-09-09T01:41:21;13.70;99.90
25933;DHT22;13731;51.166;4.474;2022-09-09T01:44:07;13.60;99.90
25933;DHT22;13731;51.166;4.474;2022-09-09T01:46:36;13.60;99.90
25933;DHT22;13731;51.166;4.474;2022-09-09T01:49:06;13.60;99.90
25933;DHT22;13731;51.166;4.474;2022-09-09T01:51:33;13.60;99.90
25933;DHT22;13731;51.166;4.474;2022-09-09T01:54:03;13.60;99.90
25933;DHT22;13731;51.166;4.474;2022-09-09T01:59:21;13.50;99.90
25933;DHT22;13731;51.166;4.474;2022-09-09T02:07:46;13.50;99.90
25933;DHT22;13731;51.166;4.474;2022-09-09T02:10:34;13.50;99.90
25933;DHT22;13731;51.166;4.474;2022-09-09T02:13:25;13.50;99.90
25933;DHT22;13731;51.166;4.474;2022-09-09T02:18:22;13.50;99.90
25933;DHT22;13731;51.166;4.474;2022-09-09T02:20:51;13.50;99.90
25933;DHT22;13731;51.166;4.474;2022-09-09T02:23:17;13.50;99.90
25933;DHT22;13731;51.166;4.474;2022-09-09T02:25:48;13.50;99.90
25933;DHT22;13731;51.166;4.474;2022-09-09T02:28:22;13.50;99.90
25933;DHT22;13731;51.166;4.474;2022-09-09T02:30:51;13.50;99.90
25933;DHT22;13731;51.166;4.474;2022-09-09T02:33:28;13.40;99.90
25933;DHT22;13731;51.166;4.474;2022-09-09T02:35:56;13.40;99.90
25933;DHT22;13731;51.166;4.474;2022-09-09T02:38:32;13.40;99.90
25933;DHT22;13731;51.166;4.474;2022-09-09T02:41:06;13.50;99.90
25933;DHT22;13731;51.166;4.474;2022-09-09T02:43:34;13.40;99.90
25933;DHT22;13731;51.166;4.474;2022-09-09T02:48:36;13.50;99.90
25933;DHT22;13731;51.166;4.474;2022-09-09T02:51:20;13.50;99.90
25933;DHT22;13731;51.166;4.474;2022-09-09T02:56:21;13.50;99.90
25933;DHT22;13731;51.166;4.474;2022-09-09T02:58:48;13.50;99.90
25933;DHT22;13731;51.166;4.474;2022-09-09T03:01:17;13.50;99.90
25933;DHT22;13731;51.166;4.474;2022-09-09T03:03:43;13.50;99.90
25933;DHT22;13731;51.166;4.474;2022-09-09T03:06:14;13.50;99.90
25933;DHT22;13731;51.166;4.474;2022-09-09T03:08:40;13.50;99.90
25933;DHT22;13731;51.166;4.474;2022-09-09T03:11:07;13.50;99.90
25933;DHT22;13731;51.166;4.474;2022-09-09T03:13:36;13.50;99.90
25933;DHT22;13731;51.166;4.474;2022-09-09T03:16:03;13.60;99.90
25933;DHT22;13731;51.166;4.474;2022-09-09T03:18:33;13.60;99.90
25933;DHT22;13731;51.166;4.474;2022-09-09T03:21:00;13.60;99.90
25933;DHT22;13731;51.166;4.474;2022-09-09T03:23:27;13.60;99.90
25933;DHT22;13731;51.166;4.474;2022-09-09T03:25:53;13.60;99.90
25933;DHT22;13731;51.166;4.474;2022-09-09T03:28:28;13.60;99.90
25933;DHT22;13731;51.166;4.474;2022-09-09T03:30:59;13.60;99.90
25933;DHT22;13731;51.166;4.474;2022-09-09T03:33:25;13.70;99.90
25933;DHT22;13731;51.166;4.474;2022-09-09T03:35:51;13.70;99.90
25933;DHT22;13731;51.166;4.474;2022-09-09T03:38:20;13.70;99.90
25933;DHT22;13731;51.166;4.474;2022-09-09T03:40:54;13.80;99.90
25933;DHT22;13731;51.166;4.474;2022-09-09T03:43:22;13.80;99.90
25933;DHT22;13731;51.166;4.474;2022-09-09T03:45:50;13.80;99.90
25933;DHT22;13731;51.166;4.474;2022-09-09T03:48:17;13.80;99.90
25933;DHT22;13731;51.166;4.474;2022-09-09T03:50:48;13.80;99.90
25933;DHT22;13731;51.166;4.474;2022-09-09T03:53:15;13.90;99.90
25933;DHT22;13731;51.166;4.474;2022-09-09T03:55:49;13.90;99.90
25933;DHT22;13731;51.166;4.474;2022-09-09T03:58:16;14.10;99.90
25933;DHT22;13731;51.166;4.474;2022-09-09T04:00:57;14.10;99.90
25933;DHT22;13731;51.166;4.474;2022-09-09T04:03:23;14.20;99.90
25933;DHT22;13731;51.166;4.474;2022-09-09T04:05:55;14.20;99.90
25933;DHT22;13731;51.166;4.474;2022-09-09T04:08:23;14.20;99.90
25933;DHT22;13731;51.166;4.474;2022-09-09T04:10:51;14.30;99.90
25933;DHT22;13731;51.166;4.474;2022-09-09T04:13:18;14.30;99.90
25933;DHT22;13731;51.166;4.474;2022-09-09T04:15:54;14.30;99.90
25933;DHT22;13731;51.166;4.474;2022-09-09T04:18:21;14.30;99.90
25933;DHT22;13731;51.166;4.474;2022-09-09T04:20:52;14.30;99.90
25933;DHT22;13731;51.166;4.474;2022-09-09T04:23:21;14.40;99.90
25933;DHT22;13731;51.166;4.474;2022-09-09T04:25:52;14.40;99.90
25933;DHT22;13731;51.166;4.474;2022-09-09T04:28:21;14.40;99.90
25933;DHT22;13731;51.166;4.474;2022-09-09T04:30:47;14.40;99.90
25933;DHT22;13731;51.166;4.474;2022-09-09T04:33:14;14.40;99.90
25933;DHT22;13731;51.166;4.474;2022-09-09T04:35:46;14.50;99.90
25933;DHT22;13731;51.166;4.474;2022-09-09T04:38:15;14.40;99.90
25933;DHT22;13731;51.166;4.474;2022-09-09T04:40:46;14.40;99.90
25933;DHT22;13731;51.166;4.474;2022-09-09T04:43:14;14.40;99.90
25933;DHT22;13731;51.166;4.474;2022-09-09T04:45:43;14.40;99.90
25933;DHT22;13731;51.166;4.474;2022-09-09T04:48:10;14.40;99.90
25933;DHT22;13731;51.166;4.474;2022-09-09T04:50:36;14.40;99.90
25933;DHT22;13731;51.166;4.474;2022-09-09T04:53:03;14.40;99.90
25933;DHT22;13731;51.166;4.474;2022-09-09T04:55:31;14.40;99.90
25933;DHT22;13731;51.166;4.474;2022-09-09T04:57:57;14.40;99.90
25933;DHT22;13731;51.166;4.474;2022-09-09T05:00:26;14.40;99.90
25933;DHT22;13731;51.166;4.474;2022-09-09T05:02:54;14.40;99.90
25933;DHT22;13731;51.166;4.474;2022-09-09T05:05:20;14.40;99.90
25933;DHT22;13731;51.166;4.474;2022-09-09T05:07:47;14.40;99.90
25933;DHT22;13731;51.166;4.474;2022-09-09T05:10:14;14.40;99.90
25933;DHT22;13731;51.166;4.474;2022-09-09T05:12:41;14.40;99.90
25933;DHT22;13731;51.166;4.474;2022-09-09T05:15:07;14.50;99.90
25933;DHT22;13731;51.166;4.474;2022-09-09T05:17:33;14.50;99.90
25933;DHT22;13731;51.166;4.474;2022-09-09T05:19:59;14.50;99.90
25933;DHT22;13731;51.166;4.474;2022-09-09T05:22:25;14.50;99.90
25933;DHT22;13731;51.166;4.474;2022-09-09T05:24:52;14.50;99.90
25933;DHT22;13731;51.166;4.474;2022-09-09T05:27:19;14.50;99.90
25933;DHT22;13731;51.166;4.474;2022-09-09T05:29:47;14.60;99.90
25933;DHT22;13731;51.166;4.474;2022-09-09T05:32:14;14.50;99.90
25933;DHT22;13731;51.166;4.474;2022-09-09T05:34:44;14.60;99.90
25933;DHT22;13731;51.166;4.474;2022-09-09T05:37:11;14.70;99.90
25933;DHT22;13731;51.166;4.474;2022-09-09T05:39:37;14.70;99.90
25933;DHT22;13731;51.166;4.474;2022-09-09T05:42:03;14.70;99.90
25933;DHT22;13731;51.166;4.474;2022-09-09T05:44:32;14.80;99.90
25933;DHT22;13731;51.166;4.474;2022-09-09T05:46:59;14.80;99.90
25933;DHT22;13731;51.166;4.474;2022-09-09T05:49:25;14.80;99.90
25933;DHT22;13731;51.166;4.474;2022-09-09T05:51:52;14.90;99.90
25933;DHT22;13731;51.166;4.474;2022-09-09T05:54:20;14.90;99.90
25933;DHT22;13731;51.166;4.474;2022-09-09T05:56:49;14.90;99.90
25933;DHT22;13731;51.166;4.474;2022-09-09T05:59:16;15.00;99.90
25933;DHT22;13731;51.166;4.474;2022-09-09T06:01:42;15.10;99.90
25933;DHT22;13731;51.166;4.474;2022-09-09T06:04:17;15.10;99.90
25933;DHT22;13731;51.166;4.474;2022-09-09T06:06:43;15.10;99.90
25933;DHT22;13731;51.166;4.474;2022-09-09T06:09:13;15.10;99.90
25933;DHT22;13731;51.166;4.474;2022-09-09T06:11:42;15.10;99.90
25933;DHT22;13731;51.166;4.474;2022-09-09T06:14:09;15.20;99.90
25933;DHT22;13731;51.166;4.474;2022-09-09T06:16:36;15.20;99.90
25933;DHT22;13731;51.166;4.474;2022-09-09T06:19:21;15.20;99.90
25933;DHT22;13731;51.166;4.474;2022-09-09T06:21:48;15.20;99.90
25933;DHT22;13731;51.166;4.474;2022-09-09T06:24:15;15.30;99.90
25933;DHT22;13731;51.166;4.474;2022-09-09T06:26:44;15.30;99.90
25933;DHT22;13731;51.166;4.474;2022-09-09T06:29:14;15.40;99.90
25933;DHT22;13731;51.166;4.474;2022-09-09T06:31:41;15.40;99.90
25933;DHT22;13731;51.166;4.474;2022-09-09T06:34:17;15.40;99.90
25933;DHT22;13731;51.166;4.474;2022-09-09T06:36:48;15.50;99.90
25933;DHT22;13731;51.166;4.474;2022-09-09T06:39:14;15.50;99.90
25933;DHT22;13731;51.166;4.474;2022-09-09T06:41:42;15.60;99.90
25933;DHT22;13731;51.166;4.474;2022-09-09T06:44:18;15.60;99.90
25933;DHT22;13731;51.166;4.474;2022-09-09T06:46:44;15.70;99.90
25933;DHT22;13731;51.166;4.474;2022-09-09T06:49:14;15.70;99.90
25933;DHT22;13731;51.166;4.474;2022-09-09T06:51:41;15.70;99.90
25933;DHT22;13731;51.166;4.474;2022-09-09T06:54:11;15.80;99.90
25933;DHT22;13731;51.166;4.474;2022-09-09T06:56:39;15.80;99.90
25933;DHT22;13731;51.166;4.474;2022-09-09T06:59:15;15.70;99.90
25933;DHT22;13731;51.166;4.474;2022-09-09T07:01:43;15.90;99.90
25933;DHT22;13731;51.166;4.474;2022-09-09T07:04:18;16.00;99.90
25933;DHT22;13731;51.166;4.474;2022-09-09T07:06:45;16.00;99.90
25933;DHT22;13731;51.166;4.474;2022-09-09T07:09:18;15.90;99.90
25933;DHT22;13731;51.166;4.474;2022-09-09T07:11:49;15.90;99.90
25933;DHT22;13731;51.166;4.474;2022-09-09T07:14:19;15.90;99.90
25933;DHT22;13731;51.166;4.474;2022-09-09T07:16:48;16.00;99.90
25933;DHT22;13731;51.166;4.474;2022-09-09T07:19:16;16.00;99.90
25933;DHT22;13731;51.166;4.474;2022-09-09T07:21:44;16.00;99.90
25933;DHT22;13731;51.166;4.474;2022-09-09T07:24:13;16.20;99.90
25933;DHT22;13731;51.166;4.474;2022-09-09T07:26:41;16.10;99.90
25933;DHT22;13731;51.166;4.474;2022-09-09T07:29:08;16.10;99.90
25933;DHT22;13731;51.166;4.474;2022-09-09T07:31:36;16.00;99.90
25933;DHT22;13731;51.166;4.474;2022-09-09T07:34:06;16.10;99.90
25933;DHT22;13731;51.166;4.474;2022-09-09T07:36:38;16.10;99.90
25933;DHT22;13731;51.166;4.474;2022-09-09T07:39:11;16.10;99.90
25933;DHT22;13731;51.166;4.474;2022-09-09T07:41:43;16.10;99.90
25933;DHT22;13731;51.166;4.474;2022-09-09T07:44:13;16.20;99.90
25933;DHT22;13731;51.166;4.474;2022-09-09T07:46:41;16.20;99.90
25933;DHT22;13731;51.166;4.474;2022-09-09T07:49:10;16.20;99.90
25933;DHT22;13731;51.166;4.474;2022-09-09T07:51:42;16.30;99.90
25933;DHT22;13731;51.166;4.474;2022-09-09T07:54:10;16.40;99.90
25933;DHT22;13731;51.166;4.474;2022-09-09T07:56:40;16.50;99.90
25933;DHT22;13731;51.166;4.474;2022-09-09T07:59:07;16.50;99.90
25933;DHT22;13731;51.166;4.474;2022-09-09T08:01:44;16.40;99.90
25933;DHT22;13731;51.166;4.474;2022-09-09T08:04:15;16.30;99.90
25933;DHT22;13731;51.166;4.474;2022-09-09T08:06:51;16.30;99.90
25933;DHT22;13731;51.166;4.474;2022-09-09T08:09:20;16.30;99.90
25933;DHT22;13731;51.166;4.474;2022-09-09T08:11:48;16.50;99.90
25933;DHT22;13731;51.166;4.474;2022-09-09T08:14:14;16.50;99.90
25933;DHT22;13731;51.166;4.474;2022-09-09T08:16:44;16.50;99.90
25933;DHT22;13731;51.166;4.474;2022-09-09T08:19:13;16.50;99.90
25933;DHT22;13731;51.166;4.474;2022-09-09T08:21:41;16.50;99.90
25933;DHT22;13731;51.166;4.474;2022-09-09T08:24:09;16.50;99.90
25933;DHT22;13731;51.166;4.474;2022-09-09T08:26:41;16.40;99.90
25933;DHT22;13731;51.166;4.474;2022-09-09T08:29:10;16.40;99.90
25933;DHT22;13731;51.166;4.474;2022-09-09T08:31:40;16.40;99.90
25933;DHT22;13731;51.166;4.474;2022-09-09T08:34:06;16.50;99.90
25933;DHT22;13731;51.166;4.474;2022-09-09T08:36:40;16.60;99.90
25933;DHT22;13731;51.166;4.474;2022-09-09T08:39:09;16.70;99.90
25933;DHT22;13731;51.166;4.474;2022-09-09T08:44:26;16.80;99.90
25933;DHT22;13731;51.166;4.474;2022-09-09T08:46:58;17.00;99.90
25933;DHT22;13731;51.166;4.474;2022-09-09T08:52:17;16.90;99.90
25933;DHT22;13731;51.166;4.474;2022-09-09T08:54:45;16.90;99.90
25933;DHT22;13731;51.166;4.474;2022-09-09T08:57:17;16.70;99.90
25933;DHT22;13731;51.166;4.474;2022-09-09T08:59:45;16.60;99.90
25933;DHT22;13731;51.166;4.474;2022-09-09T09:02:29;16.50;99.90
25933;DHT22;13731;51.166;4.474;2022-09-09T09:05:09;16.50;99.90
25933;DHT22;13731;51.166;4.474;2022-09-09T09:07:57;16.50;99.90
25933;DHT22;13731;51.166;4.474;2022-09-09T09:13:22;16.30;99.90
25933;DHT22;13731;51.166;4.474;2022-09-09T09:16:02;16.20;99.90
25933;DHT22;13731;51.166;4.474;2022-09-09T09:18:31;16.10;99.90
25933;DHT22;13731;51.166;4.474;2022-09-09T09:23:57;15.90;99.90
25933;DHT22;13731;51.166;4.474;2022-09-09T09:26:35;15.90;99.90
25933;DHT22;13731;51.166;4.474;2022-09-09T09:29:13;15.90;99.90
25933;DHT22;13731;51.166;4.474;2022-09-09T09:32:08;16.00;99.90
25933;DHT22;13731;51.166;4.474;2022-09-09T09:34:35;16.00;99.90
25933;DHT22;13731;51.166;4.474;2022-09-09T09:37:01;15.90;99.90
25933;DHT22;13731;51.166;4.474;2022-09-09T09:39:32;15.80;99.90
25933;DHT22;13731;51.166;4.474;2022-09-09T09:42:14;15.80;99.90
25933;DHT22;13731;51.166;4.474;2022-09-09T09:44:44;15.80;99.90
25933;DHT22;13731;51.166;4.474;2022-09-09T09:47:19;15.80;99.90
25933;DHT22;13731;51.166;4.474;2022-09-09T09:49:58;15.80;99.90
25933;DHT22;13731;51.166;4.474;2022-09-09T09:52:27;15.80;99.90
25933;DHT22;13731;51.166;4.474;2022-09-09T09:54:56;15.90;99.90
25933;DHT22;13731;51.166;4.474;2022-09-09T09:57:26;15.90;99.90
25933;DHT22;13731;51.166;4.474;2022-09-09T10:02:44;16.00;99.90
25933;DHT22;13731;51.166;4.474;2022-09-09T10:05:22;16.00;99.90
25933;DHT22;13731;51.166;4.474;2022-09-09T10:08:11;16.00;99.90
25933;DHT22;13731;51.166;4.474;2022-09-09T10:16:10;16.00;99.90
25933;DHT22;13731;51.166;4.474;2022-09-09T10:30:00;16.40;99.90
25933;DHT22;13731;51.166;4.474;2022-09-09T10:37:46;16.80;99.90
25933;DHT22;13731;51.166;4.474;2022-09-09T10:45:41;16.90;99.90
25933;DHT22;13731;51.166;4.474;2022-09-09T10:48:31;16.90;99.90
25933;DHT22;13731;51.166;4.474;2022-09-09T10:51:20;17.00;99.90
25933;DHT22;13731;51.166;4.474;2022-09-09T10:56:33;17.40;99.90
25933;DHT22;13731;51.166;4.474;2022-09-09T10:59:04;17.40;99.90
25933;DHT22;13731;51.166;4.474;2022-09-09T11:04:42;17.90;99.90
25933;DHT22;13731;51.166;4.474;2022-09-09T11:07:13;17.90;99.90
25933;DHT22;13731;51.166;4.474;2022-09-09T11:09:49;17.80;99.90
25933;DHT22;13731;51.166;4.474;2022-09-09T11:12:18;17.80;99.90
25933;DHT22;13731;51.166;4.474;2022-09-09T11:14:53;17.70;99.90
25933;DHT22;13731;51.166;4.474;2022-09-09T11:17:30;17.70;99.90
25933;DHT22;13731;51.166;4.474;2022-09-09T11:19:59;17.80;99.90
25933;DHT22;13731;51.166;4.474;2022-09-09T11:22:32;18.00;99.90
25933;DHT22;13731;51.166;4.474;2022-09-09T11:25:07;18.20;99.90
25933;DHT22;13731;51.166;4.474;2022-09-09T11:30:22;18.40;99.90
25933;DHT22;13731;51.166;4.474;2022-09-09T11:38:25;18.70;99.90
25933;DHT22;13731;51.166;4.474;2022-09-09T11:43:44;18.90;99.90
25933;DHT22;13731;51.166;4.474;2022-09-09T11:46:14;18.80;99.90
25933;DHT22;13731;51.166;4.474;2022-09-09T11:48:45;18.90;99.90
25933;DHT22;13731;51.166;4.474;2022-09-09T11:53:53;19.30;1.00
25933;DHT22;13731;51.166;4.474;2022-09-09T11:56:34;19.60;99.90
25933;DHT22;13731;51.166;4.474;2022-09-09T11:59:05;19.80;1.00
25933;DHT22;13731;51.166;4.474;2022-09-09T12:02:01;20.00;99.90
25933;DHT22;13731;51.166;4.474;2022-09-09T12:04:47;19.90;13.50
25933;DHT22;13731;51.166;4.474;2022-09-09T12:07:22;19.80;1.00
25933;DHT22;13731;51.166;4.474;2022-09-09T12:10:03;20.30;1.00
25933;DHT22;13731;51.166;4.474;2022-09-09T12:12:39;20.40;99.90
25933;DHT22;13731;51.166;4.474;2022-09-09T12:17:49;20.80;99.90
25933;DHT22;13731;51.166;4.474;2022-09-09T12:31:05;20.20;1.00
25933;DHT22;13731;51.166;4.474;2022-09-09T12:33:39;20.30;1.00
25933;DHT22;13731;51.166;4.474;2022-09-09T12:36:19;20.30;7.70
25933;DHT22;13731;51.166;4.474;2022-09-09T12:38:47;20.20;1.20
25933;DHT22;13731;51.166;4.474;2022-09-09T12:41:24;20.30;1.00
25933;DHT22;13731;51.166;4.474;2022-09-09T12:43:51;20.40;1.00
25933;DHT22;13731;51.166;4.474;2022-09-09T12:46:30;20.40;1.00
25933;DHT22;13731;51.166;4.474;2022-09-09T12:49:01;20.10;2.30
25933;DHT22;13731;51.166;4.474;2022-09-09T12:51:32;19.80;1.00
25933;DHT22;13731;51.166;4.474;2022-09-09T12:53:59;19.90;1.00
25933;DHT22;13731;51.166;4.474;2022-09-09T12:56:30;19.90;20.70
25933;DHT22;13731;51.166;4.474;2022-09-09T12:58:57;20.20;99.90
25933;DHT22;13731;51.166;4.474;2022-09-09T13:03:50;20.70;1.00
25933;DHT22;13731;51.166;4.474;2022-09-09T13:06:30;21.20;1.00
25933;DHT22;13731;51.166;4.474;2022-09-09T13:08:58;21.20;99.90
25933;DHT22;13731;51.166;4.474;2022-09-09T13:11:34;21.80;99.90
25933;DHT22;13731;51.166;4.474;2022-09-09T13:14:01;21.60;1.00
25933;DHT22;13731;51.166;4.474;2022-09-09T13:16:30;21.30;1.00
25933;DHT22;13731;51.166;4.474;2022-09-09T13:19:15;21.10;99.90
25933;DHT22;13731;51.166;4.474;2022-09-09T13:21:42;21.50;1.00
25933;DHT22;13731;51.166;4.474;2022-09-09T13:24:31;21.60;99.90
25933;DHT22;13731;51.166;4.474;2022-09-09T13:27:02;21.30;1.00
25933;DHT22;13731;51.166;4.474;2022-09-09T13:29:30;21.30;1.00
25933;DHT22;13731;51.166;4.474;2022-09-09T13:32:07;21.10;99.90
25933;DHT22;13731;51.166;4.474;2022-09-09T13:34:38;21.20;35.80
25933;DHT22;13731;51.166;4.474;2022-09-09T13:37:33;21.90;1.00
25933;DHT22;13731;51.166;4.474;2022-09-09T13:40:01;22.50;1.00
25933;DHT22;13731;51.166;4.474;2022-09-09T13:42:30;23.40;1.00
25933;DHT22;13731;51.166;4.474;2022-09-09T13:44:58;22.90;99.90
25933;DHT22;13731;51.166;4.474;2022-09-09T13:47:43;23.80;99.90
25933;DHT22;13731;51.166;4.474;2022-09-09T13:52:51;23.20;1.00
25933;DHT22;13731;51.166;4.474;2022-09-09T13:55:22;22.80;99.90
25933;DHT22;13731;51.166;4.474;2022-09-09T13:57:57;22.90;99.90
25933;DHT22;13731;51.166;4.474;2022-09-09T14:00:24;22.70;1.00
25933;DHT22;13731;51.166;4.474;2022-09-09T14:02:51;23.10;1.00
25933;DHT22;13731;51.166;4.474;2022-09-09T14:05:18;22.80;1.00
25933;DHT22;13731;51.166;4.474;2022-09-09T14:07:44;22.40;99.90
25933;DHT22;13731;51.166;4.474;2022-09-09T14:10:12;21.60;99.90
25933;DHT22;13731;51.166;4.474;2022-09-09T14:12:38;21.20;1.00
25933;DHT22;13731;51.166;4.474;2022-09-09T14:15:05;20.90;1.00
25933;DHT22;13731;51.166;4.474;2022-09-09T14:17:32;20.30;1.00
25933;DHT22;13731;51.166;4.474;2022-09-09T14:19:59;20.40;99.90
25933;DHT22;13731;51.166;4.474;2022-09-09T14:22:24;20.70;99.90
25933;DHT22;13731;51.166;4.474;2022-09-09T14:24:51;20.70;99.90
25933;DHT22;13731;51.166;4.474;2022-09-09T14:27:17;20.80;37.30
25933;DHT22;13731;51.166;4.474;2022-09-09T14:29:44;21.00;1.00
25933;DHT22;13731;51.166;4.474;2022-09-09T14:32:11;21.00;99.90
25933;DHT22;13731;51.166;4.474;2022-09-09T14:34:37;21.10;99.90
25933;DHT22;13731;51.166;4.474;2022-09-09T14:37:03;20.80;99.90
25933;DHT22;13731;51.166;4.474;2022-09-09T14:39:29;20.60;1.00
25933;DHT22;13731;51.166;4.474;2022-09-09T14:41:56;20.90;99.90
25933;DHT22;13731;51.166;4.474;2022-09-09T14:44:21;22.70;99.90
25933;DHT22;13731;51.166;4.474;2022-09-09T14:46:47;23.70;99.90
25933;DHT22;13731;51.166;4.474;2022-09-09T14:49:16;23.70;1.00
25933;DHT22;13731;51.166;4.474;2022-09-09T14:51:42;23.90;1.00
25933;DHT22;13731;51.166;4.474;2022-09-09T14:54:08;24.30;1.00
25933;DHT22;13731;51.166;4.474;2022-09-09T14:56:34;24.50;99.90
25933;DHT22;13731;51.166;4.474;2022-09-09T14:59:00;23.80;1.00
25933;DHT22;13731;51.166;4.474;2022-09-09T15:01:27;23.50;99.90
25933;DHT22;13731;51.166;4.474;2022-09-09T15:03:58;23.50;99.90
25933;DHT22;13731;51.166;4.474;2022-09-09T15:06:26;23.30;99.90
25933;DHT22;13731;51.166;4.474;2022-09-09T15:08:53;22.60;1.00
25933;DHT22;13731;51.166;4.474;2022-09-09T15:11:20;21.70;99.90
25933;DHT22;13731;51.166;4.474;2022-09-09T15:13:50;21.40;24.20
25933;DHT22;13731;51.166;4.474;2022-09-09T15:16:18;21.40;99.90
25933;DHT22;13731;51.166;4.474;2022-09-09T15:18:45;21.00;99.90
25933;DHT22;13731;51.166;4.474;2022-09-09T15:21:18;20.80;99.90
25933;DHT22;13731;51.166;4.474;2022-09-09T15:23:48;20.70;69.10
25933;DHT22;13731;51.166;4.474;2022-09-09T15:26:14;20.50;99.90
25933;DHT22;13731;51.166;4.474;2022-09-09T15:28:41;20.10;99.90
25933;DHT22;13731;51.166;4.474;2022-09-09T15:31:17;19.90;70.80
25933;DHT22;13731;51.166;4.474;2022-09-09T15:34:00;20.10;1.00
25933;DHT22;13731;51.166;4.474;2022-09-09T15:38:54;21.60;1.00
25933;DHT22;13731;51.166;4.474;2022-09-09T15:41:21;23.30;99.90
25933;DHT22;13731;51.166;4.474;2022-09-09T15:43:50;24.40;99.90
25933;DHT22;13731;51.166;4.474;2022-09-09T15:46:34;24.00;99.90
25933;DHT22;13731;51.166;4.474;2022-09-09T15:49:19;22.70;1.00
25933;DHT22;13731;51.166;4.474;2022-09-09T15:51:47;22.00;1.00
25933;DHT22;13731;51.166;4.474;2022-09-09T15:54:15;21.60;99.90
25933;DHT22;13731;51.166;4.474;2022-09-09T15:56:47;20.90;99.90
25933;DHT22;13731;51.166;4.474;2022-09-09T15:59:15;20.20;1.00
25933;DHT22;13731;51.166;4.474;2022-09-09T16:01:41;19.30;99.90
25933;DHT22;13731;51.166;4.474;2022-09-09T16:04:08;18.70;99.90
25933;DHT22;13731;51.166;4.474;2022-09-09T16:06:34;18.10;1.00
25933;DHT22;13731;51.166;4.474;2022-09-09T16:09:02;17.90;1.00
25933;DHT22;13731;51.166;4.474;2022-09-09T16:11:31;17.80;2.60
25933;DHT22;13731;51.166;4.474;2022-09-09T16:13:58;17.70;34.20
25933;DHT22;13731;51.166;4.474;2022-09-09T16:16:26;17.70;54.80
25933;DHT22;13731;51.166;4.474;2022-09-09T16:18:55;17.80;47.00
25933;DHT22;13731;51.166;4.474;2022-09-09T16:23:51;18.00;30.60
25933;DHT22;13731;51.166;4.474;2022-09-09T16:26:17;18.20;56.70
25933;DHT22;13731;51.166;4.474;2022-09-09T16:28:43;18.20;36.40
25933;DHT22;13731;51.166;4.474;2022-09-09T16:31:15;18.30;49.10
25933;DHT22;13731;51.166;4.474;2022-09-09T16:33:43;18.30;45.90
25933;DHT22;13731;51.166;4.474;2022-09-09T16:36:15;18.30;12.10
25933;DHT22;13731;51.166;4.474;2022-09-09T16:38:42;18.30;16.30
25933;DHT22;13731;51.166;4.474;2022-09-09T16:41:12;18.20;37.50
25933;DHT22;13731;51.166;4.474;2022-09-09T16:43:38;18.20;49.20
25933;DHT22;13731;51.166;4.474;2022-09-09T16:46:16;18.00;70.00
25933;DHT22;13731;51.166;4.474;2022-09-09T16:48:44;18.00;92.20
25933;DHT22;13731;51.166;4.474;2022-09-09T16:51:20;18.00;86.50
25933;DHT22;13731;51.166;4.474;2022-09-09T16:53:47;18.10;74.10
25933;DHT22;13731;51.166;4.474;2022-09-09T16:56:24;18.20;69.40
25933;DHT22;13731;51.166;4.474;2022-09-09T16:58:56;18.20;89.60
25933;DHT22;13731;51.166;4.474;2022-09-09T17:01:27;18.10;94.70
25933;DHT22;13731;51.166;4.474;2022-09-09T17:03:57;17.80;99.90
25933;DHT22;13731;51.166;4.474;2022-09-09T17:06:23;17.60;99.90
25933;DHT22;13731;51.166;4.474;2022-09-09T17:08:58;17.50;99.90
25933;DHT22;13731;51.166;4.474;2022-09-09T17:11:24;17.30;99.90
25933;DHT22;13731;51.166;4.474;2022-09-09T17:13:52;17.20;99.90
25933;DHT22;13731;51.166;4.474;2022-09-09T17:16:20;17.20;99.90
25933;DHT22;13731;51.166;4.474;2022-09-09T17:18:51;17.10;99.90
25933;DHT22;13731;51.166;4.474;2022-09-09T17:21:20;17.10;99.90
25933;DHT22;13731;51.166;4.474;2022-09-09T17:23:46;17.20;99.90
25933;DHT22;13731;51.166;4.474;2022-09-09T17:26:15;17.30;99.90
25933;DHT22;13731;51.166;4.474;2022-09-09T17:28:42;17.30;99.90
25933;DHT22;13731;51.166;4.474;2022-09-09T17:31:10;17.20;99.90
25933;DHT22;13731;51.166;4.474;2022-09-09T17:33:39;17.20;99.90
25933;DHT22;13731;51.166;4.474;2022-09-09T17:36:20;17.20;99.90
25933;DHT22;13731;51.166;4.474;2022-09-09T17:38:47;17.20;99.90
25933;DHT22;13731;51.166;4.474;2022-09-09T17:41:16;17.10;99.90
25933;DHT22;13731;51.166;4.474;2022-09-09T17:43:43;17.00;99.90
25933;DHT22;13731;51.166;4.474;2022-09-09T17:48:40;17.20;99.90
25933;DHT22;13731;51.166;4.474;2022-09-09T17:51:08;17.40;99.90
25933;DHT22;13731;51.166;4.474;2022-09-09T17:53:38;17.30;99.90
25933;DHT22;13731;51.166;4.474;2022-09-09T17:56:06;17.20;99.90
25933;DHT22;13731;51.166;4.474;2022-09-09T17:58:32;17.30;99.90
25933;DHT22;13731;51.166;4.474;2022-09-09T18:01:13;17.20;99.90
25933;DHT22;13731;51.166;4.474;2022-09-09T18:03:40;17.40;99.90
25933;DHT22;13731;51.166;4.474;2022-09-09T18:06:13;17.40;99.90
25933;DHT22;13731;51.166;4.474;2022-09-09T18:08:42;17.60;99.90